Time;durP1;ratioP1;P1;durP2;ratioP2;P2;SDS_P1;SDS_P2;PMS_P1;PMS_P2;Temp;Humidity;BMP_temperature;BMP_pressure;BME280_temperature;BME280_humidity;BME280_pressure;Samples;Min_cycle;Max_cycle;Signal;HPM_P1;HPM_P2
2021/12/03 00:00:30;;;;;;;5.60;5.10;;;;;;;-1.14;90.00;100036.59;5056808;28;20239;-77
2021/12/03 00:02:58;;;;;;;7.83;6.47;;;;;;;-0.96;89.85;100019.06;5056308;28;20258;-77
2021/12/03 00:05:24;;;;;;;6.77;6.17;;;;;;;-0.87;89.92;100015.84;5075533;28;20251;-78
2021/12/03 00:07:51;;;;;;;6.83;5.90;;;;;;;-0.76;89.77;100027.16;5076413;28;20231;-77
2021/12/03 00:10:23;;;;;;;6.73;5.47;;;;;;;-0.74;89.33;100050.25;5075975;28;20200;-77
2021/12/03 00:12:50;;;;;;;7.80;7.03;;;;;;;-0.80;89.59;100039.03;5075748;28;20212;-78
2021/12/03 00:15:18;;;;;;;7.90;7.10;;;;;;;-0.69;89.25;100035.84;5076006;28;20220;-78
2021/12/03 00:17:44;;;;;;;8.50;7.70;;;;;;;-0.83;89.30;100043.25;5076437;28;20235;-77
2021/12/03 00:20:14;;;;;;;8.47;7.70;;;;;;;-1.15;90.20;100025.50;5076325;28;20254;-77
2021/12/03 00:22:41;;;;;;;7.20;6.60;;;;;;;-1.05;90.14;100012.06;5076424;28;20216;-78
2021/12/03 00:25:09;;;;;;;8.23;7.43;;;;;;;-1.32;91.46;99976.47;5076177;28;20657;-77
2021/12/03 00:27:35;;;;;;;9.97;8.97;;;;;;;-1.40;92.23;99937.06;5075924;28;20201;-77
2021/12/03 00:30:02;;;;;;;9.83;8.23;;;;;;;-1.29;92.20;99932.16;5076502;28;20204;-78
2021/12/03 00:32:28;;;;;;;9.63;8.47;;;;;;;-1.37;92.43;99926.84;5075799;28;20216;-77
2021/12/03 00:34:54;;;;;;;10.93;9.83;;;;;;;-1.26;92.67;99912.59;5075904;28;20718;-77
2021/12/03 00:37:22;;;;;;;9.80;8.80;;;;;;;-1.18;92.33;99907.63;5075592;28;20760;-77
2021/12/03 00:39:49;;;;;;;9.90;8.90;;;;;;;-1.11;92.36;99906.03;5076024;28;20213;-78
2021/12/03 00:42:17;;;;;;;9.80;8.90;;;;;;;-1.04;92.25;99913.03;5076031;28;20209;-78
2021/12/03 00:44:44;;;;;;;9.60;8.60;;;;;;;-1.13;91.76;99934.22;5075865;28;20227;-77
2021/12/03 00:47:11;;;;;;;10.07;9.03;;;;;;;-1.08;91.78;99927.47;5076176;28;20200;-77
2021/12/03 00:49:39;;;;;;;13.80;9.07;;;;;;;-1.05;91.68;99917.28;5075927;28;20563;-78
2021/12/03 00:52:06;;;;;;;8.80;7.90;;;;;;;-0.98;91.67;99927.66;5075094;28;20240;-77
2021/12/03 00:54:34;;;;;;;9.60;8.80;;;;;;;-0.94;91.70;99937.97;5075398;28;20224;-77
2021/12/03 00:57:01;;;;;;;9.33;8.33;;;;;;;-0.83;91.02;99946.75;5076118;28;20656;-77
2021/12/03 00:59:31;;;;;;;8.80;7.90;;;;;;;-0.83;90.67;99954.44;5075595;28;20699;-77
2021/12/03 01:01:57;;;;;;;10.90;9.60;;;;;;;-0.82;90.92;99962.97;5075426;28;20259;-77
2021/12/03 01:04:24;;;;;;;8.97;8.07;;;;;;;-0.89;90.85;99969.69;5075369;28;20230;-77
2021/12/03 01:06:51;;;;;;;8.63;7.83;;;;;;;-0.90;91.04;99960.25;5075654;28;20196;-77
2021/12/03 01:09:17;;;;;;;12.60;8.37;;;;;;;-1.25;92.35;99941.63;5075373;28;20201;-78
2021/12/03 01:11:45;;;;;;;10.27;8.67;;;;;;;-1.15;92.78;99910.25;5075483;28;20243;-78
2021/12/03 01:14:12;;;;;;;9.50;8.50;;;;;;;-1.15;92.62;99912.81;5075765;28;20236;-77
2021/12/03 01:16:38;;;;;;;9.93;8.87;;;;;;;-1.15;92.93;99892.34;5075529;28;20250;-78
2021/12/03 01:19:05;;;;;;;9.27;8.33;;;;;;;-1.00;92.73;99899.44;5075267;28;20353;-78
2021/12/03 01:21:31;;;;;;;9.50;8.50;;;;;;;-1.07;92.29;99908.72;5075418;28;20209;-77
2021/12/03 01:23:58;;;;;;;9.43;8.53;;;;;;;-1.07;92.23;99905.25;5075187;28;20212;-77
2021/12/03 01:26:25;;;;;;;12.53;9.30;;;;;;;-0.97;92.31;99907.19;5074886;28;20240;-78
2021/12/03 01:28:52;;;;;;;9.73;8.80;;;;;;;-0.88;92.00;99915.03;5075644;28;20200;-78
2021/12/03 01:31:19;;;;;;;10.63;8.47;;;;;;;-0.82;91.42;99938.19;5074822;28;20208;-78
2021/12/03 01:33:47;;;;;;;12.50;9.17;;;;;;;-0.76;91.37;99951.97;5074584;28;20216;-78
2021/12/03 01:36:13;;;;;;;9.90;8.57;;;;;;;-0.72;90.56;99959.75;5074788;28;20646;-77
2021/12/03 01:38:40;;;;;;;11.80;8.13;;;;;;;-0.76;90.42;99975.03;5075401;28;20278;-77
2021/12/03 01:41:06;;;;;;;9.63;8.20;;;;;;;-0.80;90.73;99974.97;5074992;28;20224;-77
2021/12/03 01:43:33;;;;;;;10.30;8.37;;;;;;;-0.94;90.86;99984.09;5074680;28;20209;-77
2021/12/03 01:46:03;;;;;;;9.57;8.17;;;;;;;-0.86;90.73;99979.97;5074816;28;20707;-78
2021/12/03 01:48:30;;;;;;;8.90;8.00;;;;;;;-0.77;90.71;99981.00;5075201;28;20236;-77
2021/12/03 01:50:57;;;;;;;10.77;7.63;;;;;;;-0.80;90.36;99982.66;5075192;28;20202;-78
2021/12/03 01:53:28;;;;;;;8.87;7.93;;;;;;;-0.73;90.21;99995.59;5074872;28;20571;-78
2021/12/03 01:55:58;;;;;;;8.77;7.87;;;;;;;-0.75;90.23;99990.44;5074918;28;20224;-77
2021/12/03 01:58:24;;;;;;;8.53;7.67;;;;;;;-0.68;90.25;99989.72;5074305;28;20224;-77
2021/12/03 02:00:53;;;;;;;8.20;7.27;;;;;;;-0.73;90.12;100010.97;5074497;28;20200;-78
2021/12/03 02:03:22;;;;;;;8.70;7.10;;;;;;;-0.66;89.68;100000.88;5074074;28;20200;-77
2021/12/03 02:05:50;;;;;;;8.77;7.87;;;;;;;-0.58;89.94;100020.66;5074053;28;20302;-77
2021/12/03 02:08:17;;;;;;;11.07;8.17;;;;;;;-0.54;89.59;100025.88;5073964;28;20219;-78
2021/12/03 02:10:45;;;;;;;9.13;6.97;;;;;;;-0.52;89.40;100044.72;5074529;28;20338;-78
2021/12/03 02:13:13;;;;;;;9.90;7.30;;;;;;;-0.43;89.15;100055.16;5074514;28;20254;-77
2021/12/03 02:15:41;;;;;;;7.30;6.13;;;;;;;-0.46;88.86;100073.03;5074266;28;20278;-78
2021/12/03 02:18:09;;;;;;;7.60;6.80;;;;;;;-0.52;88.85;100084.88;5073963;28;20706;-77
2021/12/03 02:20:43;;;;;;;7.93;6.90;;;;;;;-0.56;88.85;100071.13;5074868;28;20205;-77
2021/12/03 02:23:09;;;;;;;7.37;6.50;;;;;;;-0.57;88.80;100068.53;5073980;28;20193;-78
2021/12/03 02:25:36;;;;;;;9.23;7.37;;;;;;;-0.58;89.53;100061.69;5073725;28;20286;-77
2021/12/03 02:28:02;;;;;;;12.63;7.30;;;;;;;-0.57;89.46;100065.97;5074029;28;20201;-77
2021/12/03 02:30:29;;;;;;;8.97;8.07;;;;;;;-0.59;89.54;100065.94;5074194;28;20201;-77
2021/12/03 02:32:55;;;;;;;7.90;6.83;;;;;;;-0.56;89.10;100071.13;5073652;28;20212;-77
2021/12/03 02:35:23;;;;;;;8.87;7.97;;;;;;;-0.55;89.49;100067.72;5073540;28;20220;-77
2021/12/03 02:37:53;;;;;;;10.50;8.13;;;;;;;-0.69;89.08;100064.88;5073749;28;20266;-78
2021/12/03 02:40:20;;;;;;;9.10;7.30;;;;;;;-0.87;89.98;100052.56;5073993;28;20208;-77
2021/12/03 02:42:47;;;;;;;10.03;8.67;;;;;;;-0.86;90.08;100048.28;5073777;28;20262;-77
2021/12/03 02:45:14;;;;;;;9.63;8.63;;;;;;;-0.91;90.45;100037.06;5073741;28;20224;-77
2021/12/03 02:47:42;;;;;;;9.07;8.17;;;;;;;-0.96;90.74;100024.19;5073993;28;20208;-77
2021/12/03 02:50:10;;;;;;;10.13;8.10;;;;;;;-0.93;90.89;100018.25;5073736;28;20213;-78
2021/12/03 02:52:37;;;;;;;9.43;8.43;;;;;;;-0.97;91.10;100007.09;5073976;28;20258;-77
2021/12/03 02:55:06;;;;;;;9.83;8.47;;;;;;;-1.01;90.86;100008.72;5073750;28;20224;-78
2021/12/03 02:57:33;;;;;;;9.07;7.77;;;;;;;-0.92;90.94;99995.22;5073680;28;20280;-77
2021/12/03 03:00:00;;;;;;;9.03;8.13;;;;;;;-0.81;90.78;99996.31;5074060;28;20259;-78
2021/12/03 03:02:26;;;;;;;10.23;7.90;;;;;;;-0.78;90.95;100003.19;5073340;28;20249;-78
2021/12/03 03:04:53;;;;;;;9.97;7.93;;;;;;;-0.66;90.35;100005.13;5073349;28;20228;-77
2021/12/03 03:07:21;;;;;;;11.97;9.07;;;;;;;-0.71;90.98;99999.94;5073294;28;20194;-77
2021/12/03 03:09:47;;;;;;;9.70;8.47;;;;;;;-0.60;90.38;100012.94;5073097;28;20636;-78
2021/12/03 03:12:15;;;;;;;9.90;8.80;;;;;;;-0.51;90.38;100032.78;5073291;28;20223;-77
2021/12/03 03:14:45;;;;;;;10.07;9.00;;;;;;;-0.56;90.30;100031.81;5073640;28;20221;-77
2021/12/03 03:17:11;;;;;;;11.57;8.97;;;;;;;-0.69;90.67;100017.91;5072916;28;20224;-77
2021/12/03 03:19:40;;;;;;;10.90;9.23;;;;;;;-0.79;91.15;100001.47;5073141;28;20289;-77
2021/12/03 03:22:06;;;;;;;10.80;9.70;;;;;;;-0.68;91.25;99996.56;5072644;28;20559;-77
2021/12/03 03:24:33;;;;;;;10.80;9.23;;;;;;;-0.60;90.98;100010.38;5072587;28;20811;-78
2021/12/03 03:26:59;;;;;;;11.00;9.90;;;;;;;-0.52;91.06;100021.63;5073143;28;20209;-77
2021/12/03 03:29:30;;;;;;;12.33;10.20;;;;;;;-0.61;90.74;100017.22;5072913;28;20678;-78
2021/12/03 03:31:57;;;;;;;9.80;8.80;;;;;;;-0.54;90.86;100014.75;5072290;28;20607;-78
2021/12/03 03:34:23;;;;;;;12.07;9.10;;;;;;;-0.69;91.04;99997.41;5072562;28;20201;-77
2021/12/03 03:36:50;;;;;;;11.27;9.37;;;;;;;-0.80;91.54;99995.47;5072682;28;20740;-78
2021/12/03 03:39:16;;;;;;;11.93;10.33;;;;;;;-0.87;92.12;99972.28;5072851;28;20224;-77
2021/12/03 03:41:43;;;;;;;13.40;9.37;;;;;;;-0.74;91.87;99961.41;5072479;28;20204;-78
2021/12/03 03:44:10;;;;;;;11.63;9.57;;;;;;;-0.65;91.90;99971.00;5073504;28;20201;-77
2021/12/03 03:46:38;;;;;;;12.37;10.40;;;;;;;-0.66;91.59;99982.06;5073531;28;20221;-77
2021/12/03 03:49:05;;;;;;;12.33;9.60;;;;;;;-0.71;92.09;99978.56;5073121;28;20217;-77
2021/12/03 03:51:32;;;;;;;10.60;9.50;;;;;;;-0.64;91.64;99985.53;5072806;28;20693;-77
2021/12/03 03:53:59;;;;;;;14.20;9.80;;;;;;;-0.60;91.83;99985.59;5072815;28;20204;-78
2021/12/03 03:56:25;;;;;;;13.03;9.30;;;;;;;-0.56;92.10;99980.53;5073109;28;20279;-77
2021/12/03 03:58:51;;;;;;;11.57;9.77;;;;;;;-0.62;92.15;99979.56;5072959;28;20723;-77
2021/12/03 04:01:18;;;;;;;13.17;10.03;;;;;;;-0.69;91.95;99964.94;5072159;28;20258;-77
2021/12/03 04:03:46;;;;;;;12.77;9.80;;;;;;;-0.56;91.99;99968.59;5072167;28;20201;-78
2021/12/03 04:06:13;;;;;;;11.60;9.87;;;;;;;-0.52;91.82;99970.38;5072815;28;20221;-77
2021/12/03 04:08:40;;;;;;;10.73;9.63;;;;;;;-0.62;92.29;99966.75;5072810;28;20236;-78
2021/12/03 04:11:06;;;;;;;11.77;10.23;;;;;;;-0.53;91.81;99966.09;5073057;28;20201;-77
2021/12/03 04:13:32;;;;;;;11.50;9.67;;;;;;;-0.43;91.67;99980.78;5072748;28;20204;-76
2021/12/03 04:15:59;;;;;;;11.10;9.90;;;;;;;-0.43;91.79;99982.50;5072866;28;20229;-77
2021/12/03 04:18:25;;;;;;;10.90;9.67;;;;;;;-0.54;91.72;99971.19;5072462;28;20229;-77
2021/12/03 04:20:53;;;;;;;17.90;11.13;;;;;;;-0.46;92.00;99964.50;5073103;28;20350;-77
2021/12/03 04:23:20;;;;;;;12.10;10.80;;;;;;;-0.41;91.98;99963.75;5072347;28;20201;-78
2021/12/03 04:25:47;;;;;;;12.10;10.87;;;;;;;-0.35;91.91;99962.13;5072462;28;20319;-78
2021/12/03 04:28:16;;;;;;;13.73;11.30;;;;;;;-0.34;91.26;99980.09;5072445;28;20267;-77
2021/12/03 04:30:43;;;;;;;12.40;11.00;;;;;;;-0.50;91.98;99968.69;5074344;28;20693;-77
2021/12/03 04:33:09;;;;;;;11.97;10.77;;;;;;;-0.46;92.07;99957.66;5075466;28;20741;-77
2021/12/03 04:35:37;;;;;;;11.80;9.40;;;;;;;-0.42;91.64;99963.69;5076289;28;20229;-77
2021/12/03 04:38:06;;;;;;;11.83;9.37;;;;;;;-0.34;91.86;99966.41;5075896;28;20228;-77
2021/12/03 04:40:33;;;;;;;10.30;9.30;;;;;;;-0.41;91.67;99976.56;5076241;28;20209;-77
2021/12/03 04:43:00;;;;;;;11.83;9.90;;;;;;;-0.37;91.67;99979.19;5075657;28;20671;-77
2021/12/03 04:45:29;;;;;;;13.27;10.17;;;;;;;-0.33;91.67;99992.09;5075376;28;20221;-78
2021/12/03 04:47:56;;;;;;;11.30;10.13;;;;;;;-0.38;91.35;99996.25;5075825;28;20202;-77
2021/12/03 04:50:26;;;;;;;11.23;9.93;;;;;;;-0.36;91.34;99988.59;5075608;28;20201;-78
2021/12/03 04:52:54;;;;;;;13.73;10.50;;;;;;;-0.42;91.59;99979.97;5075855;28;20206;-77
2021/12/03 04:55:23;;;;;;;12.50;10.23;;;;;;;-0.37;91.68;99977.47;5075548;28;20282;-77
2021/12/03 04:57:53;;;;;;;11.03;9.90;;;;;;;-0.34;91.48;99989.47;5075449;28;20598;-77
2021/12/03 05:00:24;;;;;;;15.43;10.27;;;;;;;-0.29;91.07;99993.00;5075426;28;20201;-77
2021/12/03 05:02:52;;;;;;;11.57;10.43;;;;;;;-0.24;91.08;99993.94;5075307;28;20270;-77
2021/12/03 05:05:18;;;;;;;13.40;10.83;;;;;;;-0.25;90.88;99995.63;5073884;28;20213;-77
2021/12/03 05:07:57;;;;;;;11.60;10.40;;;;;;;-0.38;91.42;99997.97;5075360;28;20205;-77
2021/12/03 05:10:26;;;;;;;14.73;11.27;;;;;;;-0.38;91.21;99987.69;5075573;28;20211;-77
2021/12/03 05:12:54;;;;;;;16.57;11.67;;;;;;;-0.39;91.36;99991.13;5074791;28;20262;-78
2021/12/03 05:15:20;;;;;;;12.27;10.70;;;;;;;-0.44;91.84;99989.34;5075448;28;20222;-77
2021/12/03 05:17:46;;;;;;;17.80;11.67;;;;;;;-0.41;91.54;99974.00;5075119;28;20270;-77
2021/12/03 05:20:14;;;;;;;12.63;10.97;;;;;;;-0.37;91.87;99969.78;5074938;28;20209;-78
2021/12/03 05:22:42;;;;;;;12.00;10.90;;;;;;;-0.39;92.02;99970.59;5074458;28;20239;-78
2021/12/03 05:27:35;;;;;;;13.52;12.10;;;;;;;-0.32;92.40;99944.22;5098715;22;20245;-78
2021/12/03 05:30:01;;;;;;;14.50;12.83;;;;;;;-0.26;92.07;99946.88;5055147;28;20687;-79
2021/12/03 05:32:27;;;;;;;16.13;12.63;;;;;;;-0.29;91.82;99949.41;5055350;28;20202;-77
2021/12/03 05:34:54;;;;;;;13.97;12.57;;;;;;;-0.20;92.20;99957.25;5064409;28;20593;-78
2021/12/03 05:37:20;;;;;;;15.53;13.03;;;;;;;-0.13;91.66;99968.47;5063249;28;20275;-79
2021/12/03 05:39:46;;;;;;;14.10;12.10;;;;;;;-0.18;92.05;99975.22;5055057;28;20596;-78
2021/12/03 05:42:13;;;;;;;21.33;13.87;;;;;;;-0.19;91.86;99976.94;5055025;28;20231;-78
2021/12/03 05:44:40;;;;;;;16.43;13.43;;;;;;;-0.27;92.28;99992.19;5055739;28;20209;-78
2021/12/03 05:47:07;;;;;;;16.83;13.77;;;;;;;-0.17;91.84;99977.81;5056829;28;20256;-78
2021/12/03 05:49:34;;;;;;;23.23;14.57;;;;;;;-0.10;91.88;99965.94;5057266;28;20244;-78
2021/12/03 05:52:00;;;;;;;18.17;14.03;;;;;;;-0.02;92.11;99980.66;5055067;28;20206;-78
2021/12/03 05:54:28;;;;;;;15.60;14.07;;;;;;;0.00;91.85;99993.50;5055252;28;20610;-79
2021/12/03 05:56:54;;;;;;;16.27;13.63;;;;;;;0.05;91.30;100009.84;5055669;28;20233;-78
2021/12/03 05:59:21;;;;;;;18.97;13.80;;;;;;;0.09;91.32;100006.47;5056801;28;20221;-78
2021/12/03 06:01:52;;;;;;;14.03;12.43;;;;;;;-0.17;91.56;100013.72;5055341;28;20201;-79
2021/12/03 06:04:18;;;;;;;15.80;13.13;;;;;;;-0.11;92.33;100005.28;5058624;28;20216;-79
2021/12/03 06:06:44;;;;;;;18.60;13.10;;;;;;;-0.03;92.24;99998.59;5067079;28;20220;-77
2021/12/03 06:09:11;;;;;;;19.43;14.07;;;;;;;0.02;91.63;100002.09;5074931;28;20205;-78
2021/12/03 06:11:37;;;;;;;19.03;14.07;;;;;;;0.04;91.75;100005.56;5074830;28;20274;-79
2021/12/03 06:14:03;;;;;;;17.33;13.23;;;;;;;0.04;92.17;99994.41;5075076;28;20212;-76
2021/12/03 06:16:30;;;;;;;13.83;12.43;;;;;;;0.10;91.98;99997.06;5074757;28;20283;-77
2021/12/03 06:18:58;;;;;;;16.17;12.63;;;;;;;0.09;91.74;100001.34;5074635;28;20221;-78
2021/12/03 06:21:25;;;;;;;13.57;12.07;;;;;;;0.13;91.58;100008.25;5074787;28;20234;-78
2021/12/03 06:23:51;;;;;;;17.63;12.27;;;;;;;0.00;92.03;100001.22;5074270;28;20307;-78
2021/12/03 06:26:18;;;;;;;19.33;13.37;;;;;;;0.01;92.28;99986.66;5074785;28;20236;-78
2021/12/03 06:28:45;;;;;;;18.97;14.00;;;;;;;0.03;93.05;99959.34;5074621;28;20651;-77
2021/12/03 06:31:11;;;;;;;16.60;13.93;;;;;;;0.12;92.83;99969.72;5073623;28;20255;-76
2021/12/03 06:33:37;;;;;;;14.97;12.90;;;;;;;0.12;92.73;99977.41;5074144;28;20227;-78
2021/12/03 06:36:06;;;;;;;16.17;12.33;;;;;;;0.13;92.03;99990.28;5065316;28;20221;-79
2021/12/03 06:38:33;;;;;;;15.93;13.90;;;;;;;0.14;92.06;100001.41;5074627;28;20228;-78
2021/12/03 06:41:00;;;;;;;14.07;12.40;;;;;;;0.09;92.22;100005.63;5073156;28;20663;-78
2021/12/03 06:43:27;;;;;;;15.90;13.50;;;;;;;0.05;92.30;99996.16;5074291;28;20258;-78
2021/12/03 06:45:53;;;;;;;14.33;12.73;;;;;;;0.10;92.47;99997.94;5074008;28;20230;-78
2021/12/03 06:48:20;;;;;;;16.87;12.80;;;;;;;0.09;91.88;100003.91;5073698;28;20266;-78
2021/12/03 06:50:49;;;;;;;14.23;12.73;;;;;;;0.13;91.84;99995.41;5073889;28;20205;-78
2021/12/03 06:53:20;;;;;;;16.57;13.23;;;;;;;0.17;92.03;100012.59;5073021;28;20254;-79
2021/12/03 06:55:47;;;;;;;15.20;13.30;;;;;;;0.14;91.99;99999.72;5074161;28;20222;-78
2021/12/03 06:58:15;;;;;;;14.13;12.40;;;;;;;0.22;92.23;100011.81;5073553;28;20212;-78
2021/12/03 07:00:42;;;;;;;15.43;13.83;;;;;;;0.17;91.66;100015.16;5073151;28;20227;-78
2021/12/03 07:03:08;;;;;;;15.40;12.40;;;;;;;0.19;91.99;100012.63;5072914;28;20740;-78
2021/12/03 07:05:34;;;;;;;17.00;13.47;;;;;;;0.23;91.38;100024.66;5065903;28;20221;-76
2021/12/03 07:08:01;;;;;;;13.27;11.97;;;;;;;0.16;91.51;100028.84;5060457;28;20197;-76
2021/12/03 07:10:29;;;;;;;15.13;13.40;;;;;;;0.26;92.08;100017.03;5061171;28;20207;-77
2021/12/03 07:12:56;;;;;;;14.93;13.33;;;;;;;0.28;91.73;100020.47;5060217;28;20201;-78
2021/12/03 07:15:23;;;;;;;14.50;12.93;;;;;;;0.41;92.20;100023.22;5063185;28;20200;-78
2021/12/03 07:17:51;;;;;;;15.57;11.90;;;;;;;0.19;92.32;100018.59;5063393;28;20206;-78
2021/12/03 07:20:19;;;;;;;14.27;12.77;;;;;;;0.27;92.46;100015.31;5060138;28;20221;-76
2021/12/03 07:22:45;;;;;;;13.77;11.53;;;;;;;0.30;92.35;100008.53;5058617;28;20275;-77
2021/12/03 07:25:12;;;;;;;12.90;11.70;;;;;;;0.35;92.15;100014.59;5063109;28;20609;-77
2021/12/03 07:27:40;;;;;;;13.17;11.80;;;;;;;0.45;91.82;100013.03;5062485;28;20266;-77
2021/12/03 07:30:09;;;;;;;17.00;12.07;;;;;;;0.58;91.55;100022.66;5063068;28;20194;-77
2021/12/03 07:32:35;;;;;;;12.13;11.03;;;;;;;0.68;91.39;100023.66;5052903;28;20194;-77
2021/12/03 07:35:03;;;;;;;13.53;11.80;;;;;;;0.74;91.28;100041.72;5058684;28;20655;-77
2021/12/03 07:37:29;;;;;;;11.43;10.23;;;;;;;0.77;91.07;100054.63;5059765;28;20702;-77
2021/12/03 07:39:57;;;;;;;11.33;10.27;;;;;;;0.73;90.17;100075.97;5063000;28;20282;-78
2021/12/03 07:42:23;;;;;;;16.53;11.07;;;;;;;0.82;90.09;100077.78;5059826;28;20198;-78
2021/12/03 07:44:51;;;;;;;14.43;10.53;;;;;;;0.74;90.77;100082.81;5062239;28;20197;-79
2021/12/03 07:47:18;;;;;;;11.73;10.53;;;;;;;0.81;90.89;100072.63;5062399;28;20221;-80
2021/12/03 07:49:46;;;;;;;10.63;9.53;;;;;;;0.88;90.57;100077.03;5062379;28;20575;-80
2021/12/03 07:52:14;;;;;;;11.30;9.80;;;;;;;0.89;90.17;100091.59;5064566;28;20201;-81
2021/12/03 07:54:42;;;;;;;10.23;9.23;;;;;;;0.91;90.23;100088.22;5062780;28;20209;-78
2021/12/03 07:57:08;;;;;;;11.27;9.83;;;;;;;0.93;89.72;100093.34;5063533;28;20223;-79
2021/12/03 07:59:35;;;;;;;11.13;8.97;;;;;;;0.98;89.24;100102.84;5064412;28;20279;-80
2021/12/03 08:02:03;;;;;;;10.67;9.57;;;;;;;1.00;89.39;100113.16;5063339;28;20612;-79
2021/12/03 08:04:29;;;;;;;15.70;9.57;;;;;;;0.95;89.33;100105.41;5063672;28;20201;-79
2021/12/03 08:06:55;;;;;;;12.97;8.87;;;;;;;0.98;88.88;100105.44;5063413;28;20213;-80
2021/12/03 08:09:22;;;;;;;11.90;8.60;;;;;;;0.98;89.36;100115.72;5068649;28;20691;-80
2021/12/03 08:11:49;;;;;;;8.70;7.90;;;;;;;0.89;88.79;100128.44;5068700;28;20593;-79
2021/12/03 08:14:16;;;;;;;12.00;9.13;;;;;;;0.87;88.60;100137.78;5066849;28;20737;-79
2021/12/03 08:16:43;;;;;;;10.88;9.77;;;;;;;0.69;87.98;100137.50;5072997;28;20438;-79
2021/12/03 08:19:11;;;;;;;9.13;8.23;;;;;;;0.75;88.45;100130.78;5076684;28;20229;-80
2021/12/03 08:21:37;;;;;;;8.23;7.00;;;;;;;0.76;88.37;100116.25;5076108;28;20197;-79
2021/12/03 08:24:04;;;;;;;9.20;7.77;;;;;;;0.81;88.44;100109.44;5081365;28;20207;-79
2021/12/03 08:26:32;;;;;;;9.30;7.87;;;;;;;0.84;88.70;100124.91;5075110;28;20247;-80
2021/12/03 08:28:59;;;;;;;8.67;7.77;;;;;;;0.81;88.35;100124.84;5076701;28;20277;-77
2021/12/03 08:31:25;;;;;;;10.37;9.03;;;;;;;0.77;88.58;100134.25;5075685;28;20196;-77
2021/12/03 08:33:52;;;;;;;10.77;8.07;;;;;;;0.75;88.74;100140.19;5075306;28;20205;-79
2021/12/03 08:36:20;;;;;;;9.93;8.63;;;;;;;0.71;88.74;100130.69;5070215;28;20304;-78
2021/12/03 08:38:48;;;;;;;12.40;8.53;;;;;;;0.82;88.61;100133.47;5070539;28;20232;-78
2021/12/03 08:41:17;;;;;;;11.60;8.70;;;;;;;0.84;88.94;100135.19;5060996;28;20197;-78
2021/12/03 08:43:44;;;;;;;10.70;8.87;;;;;;;0.88;89.17;100126.69;5056207;28;20209;-80
2021/12/03 08:46:14;;;;;;;12.43;9.57;;;;;;;0.90;88.76;100127.59;5056026;28;20217;-79
2021/12/03 08:48:43;;;;;;;10.30;9.30;;;;;;;0.91;88.62;100131.91;5063363;28;20201;-79
2021/12/03 08:51:29;;;;;;;12.47;9.60;;;;;;;0.94;88.13;100126.78;5067635;28;20260;-79
2021/12/03 08:56:41;;;;;;;9.90;8.90;;;;;;;1.07;87.83;100157.81;5065759;28;20363;-79
2021/12/03 08:59:07;;;;;;;15.27;9.73;;;;;;;1.10;87.54;100170.72;5067400;28;20282;-77
2021/12/03 09:01:34;;;;;;;15.00;9.27;;;;;;;0.91;87.91;100172.13;5078005;28;20205;-78
2021/12/03 09:04:00;;;;;;;11.30;9.17;;;;;;;1.10;87.64;100170.72;5072451;28;20201;-80
2021/12/03 09:06:27;;;;;;;10.77;9.70;;;;;;;1.18;87.98;100174.25;5064002;28;20630;-76
2021/12/03 09:08:53;;;;;;;11.47;10.07;;;;;;;1.14;87.33;100193.91;5063788;28;20220;-78
2021/12/03 09:11:23;;;;;;;12.57;9.47;;;;;;;1.22;87.21;100191.44;5067250;28;20235;-77
2021/12/03 09:13:50;;;;;;;10.97;9.87;;;;;;;1.29;86.87;100195.84;5064904;28;20259;-78
2021/12/03 09:16:19;;;;;;;12.53;10.37;;;;;;;1.39;86.86;100204.56;5063654;28;20750;-76
2021/12/03 09:18:47;;;;;;;11.17;9.37;;;;;;;1.31;86.31;100224.13;5064777;28;20212;-79
2021/12/03 09:21:17;;;;;;;11.20;9.40;;;;;;;1.36;86.63;100228.50;5064775;28;20638;-79
2021/12/03 09:23:55;;;;;;;11.73;8.73;;;;;;;1.42;86.57;100234.59;5064402;28;20237;-79
2021/12/03 09:26:25;;;;;;;11.83;9.80;;;;;;;1.52;86.15;100239.03;5064265;28;20235;-79
2021/12/03 09:28:59;;;;;;;10.47;8.57;;;;;;;1.27;86.16;100255.78;5065582;28;20201;-78
2021/12/03 09:31:26;;;;;;;10.60;9.00;;;;;;;1.43;86.17;100226.91;5064058;28;20205;-79
2021/12/03 09:33:52;;;;;;;13.10;8.10;;;;;;;1.48;85.49;100230.41;5065242;28;20263;-79
2021/12/03 09:36:19;;;;;;;12.43;8.53;;;;;;;1.39;85.34;100226.00;5063357;28;20298;-78
2021/12/03 09:38:45;;;;;;;9.50;8.50;;;;;;;1.36;85.32;100241.38;5064446;28;20258;-79
2021/12/03 09:41:14;;;;;;;8.53;7.73;;;;;;;1.29;85.64;100248.97;5064620;28;20267;-78
2021/12/03 09:43:44;;;;;;;8.60;7.70;;;;;;;1.30;85.00;100241.28;5065970;28;20259;-79
2021/12/03 09:46:16;;;;;;;11.00;8.50;;;;;;;1.33;85.40;100241.34;5065891;28;20221;-79
2021/12/03 09:48:55;;;;;;;11.03;8.30;;;;;;;1.48;86.05;100214.97;5064023;28;20251;-77
2021/12/03 09:51:22;;;;;;;8.63;7.77;;;;;;;1.55;86.05;100210.78;5063250;28;20248;-77
2021/12/03 09:54:16;;;;;;;11.63;8.43;;;;;;;1.66;86.15;100203.22;5064235;28;20686;-82
2021/12/03 09:56:43;;;;;;;10.70;8.33;;;;;;;1.71;84.94;100235.88;5064830;28;20307;-78
2021/12/03 09:59:48;;;;;;;9.40;8.50;;;;;;;1.78;84.37;100249.69;5062170;28;20560;-79
2021/12/03 10:02:30;;;;;;;9.00;8.10;;;;;;;1.89;84.36;100245.56;5064089;28;20197;-78
2021/12/03 10:05:22;;;;;;;9.20;8.17;;;;;;;1.96;84.11;100233.63;5061714;28;20212;-79
2021/12/03 10:13:48;;;;;;;9.00;7.03;;;;;;;2.20;82.54;100287.16;5073665;28;20694;-79
2021/12/03 10:16:34;;;;;;;7.70;6.90;;;;;;;2.22;83.01;100284.56;5074033;28;20231;-78
2021/12/03 10:19:21;;;;;;;8.07;7.27;;;;;;;2.23;82.12;100292.31;5073375;28;20546;-77
2021/12/03 10:30:19;;;;;;;8.93;7.33;;;;;;;2.29;81.41;100325.03;5071489;28;20334;-77
2021/12/03 10:33:08;;;;;;;11.60;7.30;;;;;;;2.42;82.57;100293.44;5073707;28;20211;-78
2021/12/03 10:38:41;;;;;;;7.70;7.00;;;;;;;2.31;81.36;100306.16;5027161;28;20205;-78
2021/12/03 10:44:07;;;;;;;9.87;7.67;;;;;;;2.30;82.06;100309.59;5052781;28;20201;-79
2021/12/03 10:46:46;;;;;;;9.13;7.80;;;;;;;2.45;82.91;100271.97;5052997;28;20227;-78
2021/12/03 10:49:31;;;;;;;8.10;7.30;;;;;;;2.46;82.80;100282.31;5053528;28;20313;-80
2021/12/03 10:52:24;;;;;;;9.10;7.60;;;;;;;2.44;81.27;100311.44;5052856;28;20209;-76
2021/12/03 10:55:17;;;;;;;9.05;7.50;;;;;;;2.55;82.29;100290.13;5052995;28;20444;-79
2021/12/03 11:17:51;;;;;;;9.80;7.03;;;;;;;2.77;81.52;100285.19;5072931;28;20244;-79
2021/12/03 11:33:38;;;;;;;12.00;7.43;;;;;;;2.68;82.06;100239.59;5073705;28;20710;-78
2021/12/03 11:35:08;;;;;;;8.23;7.13;;;;;;;2.66;83.64;100210.38;5073534;28;20659;-79
2021/12/03 13:27:24;;;;;;;6.73;4.77;;;;;;;2.59;77.68;100273.00;5064069;28;20190;-76
2021/12/03 14:00:45;;;;;;;4.00;3.27;;;;;;;2.79;76.08;100283.50;5060595;28;20245;-76
2021/12/03 14:09:17;;;;;;;3.73;2.70;;;;;;;2.79;76.97;100268.03;5062199;28;20182;-76
2021/12/03 14:37:41;;;;;;;4.93;2.80;;;;;;;2.82;75.45;100288.72;5061292;28;20200;-76
2021/12/03 14:46:01;;;;;;;5.50;3.07;;;;;;;2.78;75.99;100271.47;5050520;28;20205;-76
2021/12/03 14:48:38;;;;;;;4.40;2.47;;;;;;;2.70;75.61;100280.84;5060660;28;20200;-76
2021/12/03 14:51:22;;;;;;;3.57;2.33;;;;;;;2.72;76.20;100274.84;5059940;28;20605;-76
2021/12/03 14:54:17;;;;;;;4.13;2.37;;;;;;;2.76;75.58;100275.75;5059916;28;20213;-76
2021/12/03 14:56:46;;;;;;;2.90;2.13;;;;;;;2.73;75.96;100260.25;5059483;28;20236;-76
2021/12/03 14:59:18;;;;;;;3.63;2.80;;;;;;;2.78;75.54;100246.56;5057975;28;20229;-76
2021/12/03 15:01:51;;;;;;;5.37;2.13;;;;;;;2.72;74.72;100269.72;5057781;28;20229;-76
2021/12/03 15:04:51;;;;;;;6.20;2.20;;;;;;;2.78;75.92;100253.44;5058789;28;20280;-76
2021/12/03 15:07:22;;;;;;;4.83;2.17;;;;;;;2.73;74.73;100249.94;5059633;28;20296;-76
2021/12/03 15:09:50;;;;;;;4.53;2.30;;;;;;;2.78;75.48;100246.56;5066851;28;20201;-76
2021/12/03 15:13:02;;;;;;;3.43;2.33;;;;;;;2.76;75.36;100242.25;5068503;28;20232;-76
2021/12/03 15:21:31;;;;;;;3.80;2.93;;;;;;;2.58;76.00;100230.06;5026617;28;20714;-76
2021/12/03 15:27:09;;;;;;;5.33;2.53;;;;;;;2.57;75.95;100207.69;5069712;28;20197;-76
2021/12/03 15:30:08;;;;;;;3.13;2.80;;;;;;;2.66;75.96;100194.06;5069641;28;20205;-76
2021/12/03 15:32:41;;;;;;;3.67;2.53;;;;;;;2.71;75.71;100228.44;5068772;28;20228;-76
2021/12/03 15:35:12;;;;;;;10.80;7.83;;;;;;;2.76;74.80;100232.81;5068654;28;20240;-76
2021/12/03 15:38:11;;;;;;;5.97;2.97;;;;;;;2.70;76.21;100188.09;5059271;28;20297;-78